| time (UTC) | temp C | wind direction | speed KPH | gust KPH | rain 1hr cm | rain 24hr cm | rain mn cm | humidity % | barometer mb |
| 20260510204547 | 17 | 360 | 14.5 | 22.5 | 0.00 | 0.71 | 0.71 | 51 | 1021.3 |
| 20260510203018 | 16 | 360 | 6.4 | 17.7 | 0.00 | 0.71 | 0.71 | 53 | 1021.5 |
| 20260510201514 | 16 | 360 | 9.7 | 17.7 | 0.00 | 0.71 | 0.71 | 53 | 1021.6 |
| 20260510200016 | 16 | 360 | 6.4 | 14.5 | 0.00 | 0.71 | 0.71 | 55 | 1021.5 |
| 20260510194507 | 15 | 360 | 14.5 | 24.1 | 0.00 | 0.71 | 0.71 | 55 | 1021.6 |
| 20260510193006 | 15 | 360 | 6.4 | 17.7 | 0.00 | 0.71 | 0.71 | 56 | 1021.7 |
| 20260510191505 | 15 | 360 | 11.3 | 17.7 | 0.00 | 0.71 | 0.71 | 57 | 1021.8 |
| 20260510190032 | 15 | 360 | 8.0 | 16.1 | 0.00 | 0.71 | 0.71 | 57 | 1022.0 |
| 20260510184530 | 15 | 360 | 6.4 | 20.9 | 0.00 | 0.71 | 0.71 | 62 | 1022.1 |
| 20260510183058 | 14 | 360 | 4.8 | 17.7 | 0.00 | 0.71 | 0.71 | 61 | 1022.1 |
| 20260510181559 | 14 | 360 | 4.8 | 17.7 | 0.00 | 0.71 | 0.71 | 61 | 1022.1 |
| 20260510180104 | 13 | 360 | 8.0 | 17.7 | 0.00 | 0.71 | 0.71 | 64 | 1021.9 |
| 20260510174548 | 13 | 360 | 9.7 | 16.1 | 0.00 | 0.71 | 0.71 | 69 | 1021.8 |
| 20260510173045 | 12 | 360 | 11.3 | 17.7 | 0.00 | 0.71 | 0.71 | 67 | 1021.9 |
| 20260510171542 | 12 | 360 | 8.0 | 16.1 | 0.00 | 0.71 | 0.71 | 74 | 1021.7 |
| 20260510170041 | 12 | 360 | 8.0 | 17.7 | 0.00 | 0.71 | 0.71 | 77 | 1021.4 |
| 20260510164539 | 11 | 360 | 9.7 | 17.7 | 0.00 | 0.71 | 0.71 | 80 | 1021.4 |
| 20260510163040 | 11 | 360 | 6.4 | 16.1 | 0.00 | 0.71 | 0.71 | 79 | 1021.2 |
| 20260510161533 | 11 | 98 | 8.0 | 17.7 | 0.00 | 0.71 | 0.71 | 81 | 1021.4 |
| 20260510160027 | 10 | 360 | 9.7 | 16.1 | 0.00 | 0.71 | 0.71 | 84 | 1021.3 |
| 20260510154527 | 10 | 360 | 8.0 | 16.1 | 0.00 | 0.71 | 0.71 | 87 | 1021.3 |
| 20260510153027 | 10 | 360 | 9.7 | 16.1 | 0.00 | 0.71 | 0.71 | 89 | 1021.1 |
| 20260510151523 | 10 | 360 | 6.4 | 9.7 | 0.00 | 0.71 | 0.71 | 90 | 1021.0 |
| 20260510144551 | 9 | 360 | 4.8 | 8.0 | 0.00 | 0.71 | 0.71 | 90 | 1020.9 |
| 20260510143058 | 9 | 360 | 3.2 | 9.7 | 0.00 | 0.71 | 0.71 | 90 | 1020.9 |
| 20260510141552 | 9 | 360 | 1.6 | 4.8 | 0.00 | 0.71 | 0.71 | 91 | 1020.8 |
| 20260510140046 | 9 | 360 | 0.0 | 6.4 | 0.00 | 0.71 | 0.71 | 91 | 1020.6 |
| 20260510134555 | 8 | 360 | 4.8 | 8.0 | 0.00 | 0.71 | 0.71 | 91 | 1020.3 |
| 20260510133042 | 8 | 360 | 4.8 | 9.7 | 0.00 | 0.71 | 0.71 | 91 | 1020.1 |
| 20260510131541 | 8 | 360 | 8.0 | 16.1 | 0.00 | 0.71 | 0.71 | 91 | 1020.2 |
| 20260510130040 | 8 | 360 | 9.7 | 17.7 | 0.00 | 0.71 | 0.71 | 92 | 1020.1 |
| 20260510124548 | 8 | 360 | 4.8 | 14.5 | 0.00 | 0.71 | 0.71 | 92 | 1019.7 |
| 20260510123035 | 8 | 360 | 1.6 | 6.4 | 0.00 | 0.71 | 0.71 | 91 | 1019.5 |
| 20260510121532 | 8 | 360 | 1.6 | 9.7 | 0.00 | 0.71 | 0.71 | 91 | 1019.1 |
| 20260510120031 | 8 | 360 | 6.4 | 14.5 | 0.00 | 0.71 | 0.71 | 91 | 1019.1 |
| 20260510114529 | 8 | 360 | 8.0 | 17.7 | 0.00 | 0.71 | 0.71 | 91 | 1018.5 |
| 20260510113026 | 8 | 360 | 8.0 | 17.7 | 0.05 | 0.71 | 0.71 | 91 | 1017.8 |
| 20260510111525 | 8 | 360 | 8.0 | 20.9 | 0.15 | 0.71 | 0.71 | 92 | 1017.5 |
| 20260510110023 | 8 | 360 | 9.7 | 17.7 | 0.23 | 0.71 | 0.71 | 92 | 1016.8 |
| 20260510104524 | 8 | 360 | 17.7 | 27.4 | 0.28 | 0.71 | 0.71 | 91 | 1015.5 |
| 20260510103019 | 9 | 360 | 9.7 | 20.9 | 0.20 | 0.64 | 0.64 | 91 | 1018.2 |
| 20260510101517 | 9 | 5 | 14.5 | 24.1 | 0.15 | 0.56 | 0.56 | 91 | 1018.6 |
| 20260510100016 | 9 | 355 | 14.5 | 27.4 | 0.08 | 0.48 | 0.48 | 91 | 1018.8 |
| 20260510100014 | 9 | 360 | 16.1 | 27.4 | 0.08 | 0.48 | 0.48 | 91 | 1018.8 |
| 20260510094515 | 9 | 360 | 17.7 | 24.1 | 0.03 | 0.43 | 0.43 | 90 | 1018.6 |
| 20260510093009 | 9 | 360 | 11.3 | 17.7 | 0.03 | 0.43 | 0.43 | 89 | 1017.8 |
| 20260510091505 | 9 | 360 | 8.0 | 16.1 | 0.00 | 0.41 | 0.41 | 89 | 1017.3 |
| 20260510090013 | 9 | 360 | 9.7 | 16.1 | 0.00 | 0.41 | 0.41 | 88 | 1017.0 |
| 20260510084504 | 9 | 360 | 8.0 | 14.5 | 0.00 | 0.41 | 0.41 | 88 | 1016.8 |
| 20260510083003 | 9 | 360 | 6.4 | 9.7 | 0.00 | 0.41 | 0.41 | 88 | 1016.4 |
| 20260510081625 | 9 | 360 | 4.8 | 9.7 | 0.00 | 0.41 | 0.41 | 88 | 1015.8 |
| 20260510080100 | 9 | 360 | 4.8 | 12.9 | 0.00 | 0.41 | 0.41 | 88 | 1015.3 |
| 20260510074559 | 9 | 104 | 9.7 | 24.1 | 0.03 | 0.41 | 0.41 | 88 | 1014.6 |
| 20260510073104 | 9 | 360 | 12.9 | 22.5 | 0.08 | 0.41 | 0.41 | 88 | 1014.8 |
| 20260510071557 | 9 | 360 | 16.1 | 29.0 | 0.38 | 0.41 | 0.41 | 89 | 1014.9 |
| 20260510070052 | 9 | 360 | 14.5 | 32.2 | 0.41 | 0.41 | 0.41 | 89 | 1015.0 |
| 20260510064556 | 9 | 360 | 16.1 | 30.6 | 0.38 | 0.38 | 0.38 | 88 | 1015.3 |
| 20260510063048 | 10 | 360 | 17.7 | 30.6 | 0.33 | 0.33 | 0.33 | 86 | 1016.8 |
| 20260510061545 | 10 | 360 | 14.5 | 22.5 | 0.03 | 0.03 | 0.03 | 83 | 1017.9 |
| 20260510060046 | 10 | 360 | 9.7 | 20.9 | 0.00 | 0.00 | 0.00 | 81 | 1017.5 |
| 20260510054536 | 11 | 360 | 17.7 | 43.5 | 0.00 | 0.00 | 0.00 | 78 | 1016.8 |
| 20260510053040 | 11 | 360 | 24.1 | 37.0 | 0.00 | 0.00 | 0.00 | 77 | 1015.8 |
| 20260510051605 | 11 | 360 | 19.3 | 41.8 | 0.00 | 0.00 | 0.00 | 76 | 1014.9 |
| 20260510050107 | 11 | 360 | 32.2 | 46.7 | 0.00 | 0.00 | 0.00 | 75 | 1013.7 |
| 20260510044602 | 11 | 360 | 27.4 | 45.1 | 0.00 | 0.00 | 0.00 | 72 | 1013.9 |
| 20260510043056 | 11 | 360 | 32.2 | 48.3 | 0.00 | 0.00 | 0.00 | 71 | 1013.8 |
| 20260510041548 | 11 | 360 | 27.4 | 48.3 | 0.00 | 0.00 | 0.00 | 68 | 1013.5 |
| 20260510040048 | 12 | 360 | 30.6 | 51.5 | 0.00 | 0.00 | 0.00 | 65 | 1013.3 |
| 20260510034544 | 15 | 360 | 35.4 | 53.1 | 0.00 | 0.00 | 0.00 | 54 | 1012.9 |
| 20260510033057 | 16 | 360 | 32.2 | 53.1 | 0.00 | 0.00 | 0.00 | 53 | 1012.9 |
| 20260510031541 | 16 | 360 | 4.8 | 9.7 | 0.00 | 0.00 | 0.00 | 55 | 1010.8 |
| 20260510030046 | 16 | 360 | 11.3 | 19.3 | 0.00 | 0.00 | 0.00 | 53 | 1009.3 |
| 20260510024638 | 17 | 360 | 9.7 | 19.3 | 0.00 | 0.00 | 0.00 | 52 | 1009.2 |
| 20260510023037 | 17 | 360 | 9.7 | 19.3 | 0.00 | 0.00 | 0.00 | 50 | 1008.9 |
| 20260510021536 | 18 | 360 | 12.9 | 22.5 | 0.00 | 0.00 | 0.00 | 47 | 1008.4 |
| 20260510020036 | 19 | 360 | 14.5 | 22.5 | 0.00 | 0.00 | 0.00 | 44 | 1008.3 |
| 20260510014539 | 20 | 360 | 16.1 | 22.5 | 0.00 | 0.00 | 0.00 | 43 | 1008.3 |
| 20260510013035 | 20 | 360 | 17.7 | 27.4 | 0.00 | 0.00 | 0.00 | 41 | 1008.1 |
| 20260510011533 | 21 | 104 | 12.9 | 22.5 | 0.00 | 0.00 | 0.00 | 38 | 1007.8 |
| 20260510010031 | 21 | 360 | 8.0 | 16.1 | 0.00 | 0.00 | 0.00 | 36 | 1007.5 |
| 20260510004531 | 22 | 360 | 12.9 | 19.3 | 0.00 | 0.00 | 0.00 | 34 | 1007.1 |
| 20260510003028 | 22 | 360 | 11.3 | 20.9 | 0.00 | 0.00 | 0.00 | 32 | 1007.4 |
| 20260510001527 | 23 | 360 | 9.7 | 22.5 | 0.00 | 0.00 | 0.00 | 31 | 1007.2 |
| 20260510000027 | 23 | 360 | 11.3 | 22.5 | 0.00 | 0.00 | 0.00 | 29 | 1006.7 |
| 20260509234535 | 25 | 360 | 14.5 | 30.6 | 0.00 | 0.00 | 0.00 | 28 | 1006.6 |
| 20260509233022 | 25 | 360 | 16.1 | 25.7 | 0.00 | 0.00 | 0.00 | 27 | 1006.3 |
| 20260509231523 | 25 | 360 | 19.3 | 27.4 | 0.00 | 0.00 | 0.00 | 25 | 1006.3 |
| 20260509230023 | 25 | 360 | 16.1 | 29.0 | 0.00 | 0.00 | 0.00 | 25 | 1006.2 |
| 20260509224519 | 25 | 360 | 19.3 | 32.2 | 0.00 | 0.00 | 0.00 | 27 | 1006.2 |
| 20260509223019 | 25 | 360 | 14.5 | 24.1 | 0.00 | 0.00 | 0.00 | 28 | 1006.3 |
| 20260509221518 | 25 | 360 | 11.3 | 25.7 | 0.00 | 0.00 | 0.00 | 27 | 1006.1 |
| 20260509220016 | 26 | 360 | 16.1 | 32.2 | 0.00 | 0.00 | 0.00 | 26 | 1006.4 |
| 20260509214616 | 26 | 360 | 20.9 | 33.8 | 0.00 | 0.00 | 0.00 | 26 | 1006.5 |
| 20260509213044 | 26 | 360 | 20.9 | 32.2 | 0.00 | 0.00 | 0.00 | 26 | 1006.6 |
| 20260509211542 | 26 | 360 | 20.9 | 30.6 | 0.00 | 0.00 | 0.00 | 26 | 1006.6 |
| 20260509210039 | 26 | 360 | 19.3 | 37.0 | 0.00 | 0.00 | 0.00 | 26 | 1006.6 |